createdAt,value
2023-03-19T00:00:29.451Z,64.16
2023-03-19T00:03:36.114Z,66.70
2023-03-19T00:06:42.286Z,66.42
2023-03-19T00:09:48.468Z,64.88
2023-03-19T00:12:52.876Z,63.66
2023-03-19T00:15:58.835Z,63.30
2023-03-19T00:19:05.202Z,62.51
2023-03-19T00:22:09.888Z,62.41
2023-03-19T00:25:15.912Z,62.34
2023-03-19T00:28:21.853Z,62.23
2023-03-19T00:31:29.351Z,61.46
2023-03-19T00:34:35.129Z,60.47
2023-03-19T00:37:42.088Z,57.49
2023-03-19T00:40:48.678Z,58.12
2023-03-19T00:43:57.487Z,59.64
2023-03-19T00:47:03.293Z,59.94
2023-03-19T00:50:11.167Z,60.45
2023-03-19T00:53:17.469Z,61.13
2023-03-19T00:56:23.247Z,61.80
2023-03-19T00:59:29.252Z,63.94
2023-03-19T01:02:35.588Z,65.99
2023-03-19T01:05:39.710Z,65.58
2023-03-19T01:08:45.664Z,64.81
2023-03-19T01:11:51.449Z,63.60
2023-03-19T01:14:57.277Z,62.70
2023-03-19T01:18:03.245Z,62.00
2023-03-19T01:21:10.935Z,61.29
2023-03-19T01:24:17.190Z,60.47
2023-03-19T01:27:23.109Z,58.38
2023-03-19T01:30:29.020Z,57.91
2023-03-19T01:33:35.035Z,59.18
2023-03-19T01:36:40.939Z,60.92
2023-03-19T01:39:46.797Z,61.49
2023-03-19T01:42:57.979Z,61.90
2023-03-19T01:46:08.569Z,62.13
2023-03-19T01:49:15.380Z,63.95
2023-03-19T01:52:22.710Z,66.10
2023-03-19T01:55:28.633Z,65.97
2023-03-19T01:58:34.557Z,65.42
2023-03-19T02:01:45.081Z,64.46
2023-03-19T02:04:55.819Z,63.97
2023-03-19T02:08:05.341Z,63.55
2023-03-19T02:11:11.804Z,63.46
2023-03-19T02:14:16.299Z,63.19
2023-03-19T02:17:23.285Z,63.17
2023-03-19T02:20:33.962Z,62.14
2023-03-19T02:23:46.783Z,61.69
2023-03-19T02:26:53.460Z,61.35
2023-03-19T02:30:01.390Z,60.28
2023-03-19T02:33:08.584Z,58.49
2023-03-19T02:36:19.393Z,58.42
2023-03-19T02:39:31.004Z,59.18
2023-03-19T02:42:36.865Z,59.83
2023-03-19T02:45:42.746Z,60.82
2023-03-19T02:48:48.593Z,63.71
2023-03-19T02:51:54.534Z,66.90
2023-03-19T02:55:00.286Z,65.89
2023-03-19T02:58:06.156Z,64.84
2023-03-19T03:01:12.067Z,64.98
2023-03-19T03:04:17.973Z,64.25
2023-03-19T03:07:23.925Z,62.86
2023-03-19T03:10:30.574Z,62.27
2023-03-19T03:13:37.442Z,61.61
2023-03-19T03:16:43.787Z,60.67
2023-03-19T03:19:47.977Z,60.23
2023-03-19T03:22:53.784Z,60.14
2023-03-19T03:25:59.537Z,58.16
2023-03-19T03:29:05.772Z,57.89
2023-03-19T03:32:12.164Z,58.84
2023-03-19T03:35:21.961Z,59.86
2023-03-19T03:38:28.058Z,59.99
2023-03-19T03:41:33.897Z,61.11
2023-03-19T03:44:39.947Z,61.78
2023-03-19T03:47:46.339Z,63.81
2023-03-19T03:50:50.533Z,66.23
2023-03-19T03:53:56.387Z,66.24
2023-03-19T03:57:03.598Z,64.42
2023-03-19T04:00:13.215Z,63.43
2023-03-19T04:03:19.629Z,62.85
2023-03-19T04:06:28.593Z,63.44
2023-03-19T04:09:34.371Z,63.04
2023-03-19T04:12:41.542Z,62.90
2023-03-19T04:15:48.000Z,62.32
2023-03-19T04:18:52.154Z,61.34
2023-03-19T04:21:57.914Z,61.50
2023-03-19T04:25:05.120Z,61.84
2023-03-19T04:28:14.268Z,61.15
2023-03-19T04:31:20.224Z,61.24
2023-03-19T04:34:26.174Z,60.19
2023-03-19T04:37:32.107Z,58.22
2023-03-19T04:40:37.972Z,58.60
2023-03-19T04:43:43.928Z,59.34
2023-03-19T04:46:49.773Z,60.36
2023-03-19T04:49:55.738Z,61.08
2023-03-19T04:53:01.700Z,63.25
2023-03-19T04:56:09.084Z,66.11
2023-03-19T04:59:14.843Z,65.30
2023-03-19T05:02:20.898Z,64.46
2023-03-19T05:05:27.072Z,63.98
2023-03-19T05:08:33.084Z,64.56
2023-03-19T05:11:39.396Z,64.44
2023-03-19T05:14:43.820Z,64.30
2023-03-19T05:17:50.190Z,64.56
2023-03-19T05:20:54.788Z,64.60
2023-03-19T05:24:00.674Z,64.57
2023-03-19T05:27:07.606Z,64.29
2023-03-19T05:30:16.074Z,64.09
2023-03-19T05:33:22.676Z,63.85
2023-03-19T05:36:29.221Z,63.73
2023-03-19T05:39:35.390Z,63.46
2023-03-19T05:42:41.244Z,63.29
2023-03-19T05:45:51.469Z,63.17
2023-03-19T05:48:57.464Z,63.37
2023-03-19T05:52:03.312Z,62.98
2023-03-19T05:55:11.143Z,62.64
2023-03-19T05:58:16.997Z,62.43
2023-03-19T06:01:23.264Z,62.39
2023-03-19T06:04:29.200Z,62.27
2023-03-19T06:07:35.060Z,62.30
2023-03-19T06:10:40.913Z,62.31
2023-03-19T06:13:47.328Z,62.33
2023-03-19T06:16:53.342Z,62.15
2023-03-19T06:19:59.096Z,62.20
2023-03-19T06:23:05.059Z,62.32
2023-03-19T06:26:11.036Z,62.09
2023-03-19T06:29:16.983Z,61.91
2023-03-19T06:32:22.950Z,62.03
2023-03-19T06:35:29.282Z,62.01
2023-03-19T06:38:33.466Z,61.92
2023-03-19T06:41:39.189Z,62.01
2023-03-19T06:44:45.161Z,61.73
2023-03-19T06:47:53.510Z,61.78
2023-03-19T06:50:59.718Z,61.62
2023-03-19T06:54:06.091Z,61.42
2023-03-19T06:57:10.422Z,60.38
2023-03-19T07:00:18.709Z,59.94
2023-03-19T07:03:24.483Z,58.21
2023-03-19T07:06:30.435Z,56.99
2023-03-19T07:09:36.609Z,57.61
2023-03-19T07:12:42.388Z,58.40
2023-03-19T07:15:48.319Z,59.32
2023-03-19T07:18:54.330Z,59.78
2023-03-19T07:22:00.071Z,60.89
2023-03-19T07:25:06.736Z,62.18
2023-03-19T07:28:12.564Z,63.91
2023-03-19T07:31:18.780Z,63.99
2023-03-19T07:34:23.243Z,63.31
2023-03-19T07:37:29.108Z,64.26
2023-03-19T07:40:35.244Z,63.57
2023-03-19T07:43:39.797Z,63.07
2023-03-19T07:46:45.855Z,63.11
2023-03-19T07:49:51.657Z,61.80
2023-03-19T07:52:57.565Z,60.87
2023-03-19T07:56:03.529Z,58.29
2023-03-19T07:59:09.407Z,56.95
2023-03-19T08:02:16.510Z,57.22
2023-03-19T08:05:22.624Z,58.02
2023-03-19T08:08:28.486Z,58.61
2023-03-19T08:11:34.261Z,59.08
2023-03-19T08:14:40.016Z,59.37
2023-03-19T08:17:46.055Z,59.74
2023-03-19T08:20:51.896Z,59.81
2023-03-19T08:23:57.767Z,59.60
2023-03-19T08:27:03.975Z,60.01
2023-03-19T08:30:12.357Z,58.73
2023-03-19T08:33:18.543Z,57.17
2023-03-19T08:36:22.830Z,56.75
2023-03-19T08:39:29.377Z,56.38
2023-03-19T08:42:35.704Z,56.20
2023-03-19T08:45:39.892Z,55.97
2023-03-19T08:48:46.458Z,55.34
2023-03-19T08:51:52.320Z,53.57
2023-03-19T08:54:58.381Z,52.13
2023-03-19T08:58:04.649Z,52.51
2023-03-19T09:01:10.867Z,50.40
2023-03-19T09:04:16.835Z,51.14
2023-03-19T09:07:22.760Z,49.86
2023-03-19T09:10:28.894Z,50.02
2023-03-19T09:13:35.111Z,50.09
2023-03-19T09:16:39.480Z,48.06
2023-03-19T09:19:45.339Z,47.21
2023-03-19T09:22:51.297Z,48.18
2023-03-19T09:25:57.359Z,47.05
2023-03-19T09:29:03.689Z,45.71
2023-03-19T09:32:08.536Z,45.19
2023-03-19T09:35:14.734Z,45.98
2023-03-19T09:38:19.149Z,44.78
2023-03-19T09:41:34.839Z,45.36
2023-03-19T09:44:44.381Z,42.22
2023-03-19T09:47:54.775Z,42.85
2023-03-19T09:51:04.588Z,40.32
2023-03-19T09:54:23.873Z,40.87
2023-03-19T09:57:30.029Z,41.30
2023-03-19T10:00:37.111Z,41.02
2023-03-19T10:03:54.460Z,41.14
2023-03-19T10:07:08.647Z,40.10
2023-03-19T10:10:48.610Z,40.58
2023-03-19T10:14:05.197Z,40.11
2023-03-19T10:17:20.759Z,38.65
2023-03-19T10:20:34.751Z,38.01
2023-03-19T10:23:46.918Z,38.90
2023-03-19T10:26:58.035Z,38.67
2023-03-19T10:30:07.147Z,39.16
2023-03-19T10:33:23.512Z,37.18
2023-03-19T10:36:34.694Z,37.38
2023-03-19T10:39:41.803Z,35.61
2023-03-19T10:43:04.085Z,35.87
2023-03-19T10:46:15.757Z,35.10
2023-03-19T10:49:21.538Z,34.64
2023-03-19T10:52:32.140Z,36.11
2023-03-19T10:55:38.097Z,34.56
2023-03-19T10:58:56.760Z,35.43
2023-03-19T11:02:16.501Z,35.55
2023-03-19T11:05:31.907Z,35.02
2023-03-19T11:08:40.191Z,34.11
2023-03-19T11:11:50.838Z,33.37
2023-03-19T11:14:59.469Z,33.16
2023-03-19T11:18:17.029Z,32.75
2023-03-19T11:21:30.319Z,34.54
2023-03-19T11:24:40.519Z,33.45
2023-03-19T11:27:48.136Z,31.95
2023-03-19T11:31:03.752Z,31.63
2023-03-19T11:34:30.981Z,30.60
2023-03-19T11:37:52.196Z,31.45
2023-03-19T11:41:07.174Z,30.80
2023-03-19T11:44:21.017Z,29.72
2023-03-19T11:47:36.393Z,30.15
2023-03-19T11:50:50.576Z,31.04
2023-03-19T11:54:06.665Z,30.94
2023-03-19T11:57:20.036Z,30.82
2023-03-19T12:00:34.023Z,30.19
2023-03-19T12:04:15.546Z,31.28
2023-03-19T12:07:31.729Z,31.24
2023-03-19T12:10:53.734Z,31.79
2023-03-19T12:14:25.313Z,31.93
2023-03-19T12:17:45.985Z,31.98
2023-03-19T12:21:04.988Z,33.19
2023-03-19T12:24:23.648Z,32.33
2023-03-19T12:27:40.816Z,31.48
2023-03-19T12:30:50.783Z,31.00
2023-03-19T12:34:07.831Z,31.95
2023-03-19T12:37:22.639Z,31.72
2023-03-19T12:40:36.964Z,31.01
2023-03-19T12:43:51.454Z,31.82
2023-03-19T12:47:04.414Z,31.46
2023-03-19T12:50:15.415Z,30.06
2023-03-19T12:53:32.981Z,30.06
2023-03-19T12:56:45.167Z,29.99
2023-03-19T12:59:56.638Z,32.02
2023-03-19T13:03:09.292Z,32.67
2023-03-19T13:06:21.922Z,31.18
2023-03-19T13:09:33.305Z,31.36
2023-03-19T13:12:39.787Z,31.27
2023-03-19T13:15:50.300Z,31.18
2023-03-19T13:19:09.977Z,31.24
2023-03-19T13:22:20.604Z,31.16
2023-03-19T13:25:33.880Z,32.17
2023-03-19T13:28:55.230Z,31.56
2023-03-19T13:32:07.638Z,33.11
2023-03-19T13:35:21.862Z,32.24
2023-03-19T13:38:34.436Z,31.25
2023-03-19T13:42:09.042Z,32.46
2023-03-19T13:45:35.990Z,31.98
2023-03-19T13:48:52.889Z,31.86
2023-03-19T13:52:04.265Z,32.71
2023-03-19T13:55:34.494Z,32.41
2023-03-19T13:58:53.135Z,32.25
2023-03-19T14:02:00.242Z,32.33
2023-03-19T14:05:10.533Z,32.41
2023-03-19T14:08:24.602Z,32.62
2023-03-19T14:11:34.058Z,32.44
2023-03-19T14:14:45.362Z,32.46
2023-03-19T14:18:01.567Z,32.65
2023-03-19T14:21:12.955Z,33.21
2023-03-19T14:28:06.740Z,33.17
2023-03-19T14:31:23.113Z,32.66
2023-03-19T14:34:33.828Z,33.26
2023-03-19T14:37:49.210Z,33.10
2023-03-19T14:40:57.339Z,33.13
2023-03-19T14:44:24.508Z,33.36
2023-03-19T14:47:48.982Z,32.81
2023-03-19T14:51:10.655Z,33.19
2023-03-19T14:54:29.284Z,33.31
2023-03-19T14:57:36.304Z,33.44
2023-03-19T15:00:44.705Z,33.59
2023-03-19T15:03:56.910Z,33.49
2023-03-19T15:07:03.243Z,33.70
2023-03-19T15:10:16.074Z,33.79
2023-03-19T15:13:37.062Z,33.61
2023-03-19T15:16:54.950Z,33.33
2023-03-19T15:20:03.645Z,33.98
2023-03-19T15:23:25.675Z,34.14
2023-03-19T15:26:37.963Z,34.09
2023-03-19T15:29:44.270Z,33.67
2023-03-19T15:33:04.233Z,34.08
2023-03-19T15:36:18.553Z,34.20
2023-03-19T15:39:27.733Z,34.50
2023-03-19T15:42:34.097Z,34.34
2023-03-19T15:45:40.994Z,34.39
2023-03-19T15:48:50.977Z,34.78
2023-03-19T15:52:03.053Z,35.42
2023-03-19T15:55:10.590Z,35.69
2023-03-19T15:58:21.534Z,35.82
2023-03-19T16:01:28.231Z,36.29
2023-03-19T16:04:55.979Z,36.14
2023-03-19T16:08:04.955Z,36.11
2023-03-19T16:11:27.314Z,36.38
2023-03-19T16:14:41.949Z,36.95
2023-03-19T16:17:49.374Z,36.99
2023-03-19T16:21:14.485Z,36.75
2023-03-19T16:24:27.542Z,36.78
2023-03-19T16:27:38.450Z,37.20
2023-03-19T16:30:49.609Z,37.29
2023-03-19T16:33:57.232Z,37.27
2023-03-19T16:37:03.859Z,37.55
2023-03-19T16:40:41.198Z,37.61
2023-03-19T16:43:48.747Z,37.88
2023-03-19T16:46:55.581Z,39.39
2023-03-19T16:50:01.662Z,39.15
2023-03-19T16:53:16.230Z,38.69
2023-03-19T16:56:22.293Z,38.71
2023-03-19T16:59:30.962Z,39.22
2023-03-19T17:02:36.695Z,40.52
2023-03-19T17:05:42.720Z,41.35
2023-03-19T17:08:49.265Z,40.30
2023-03-19T17:11:55.359Z,41.62
2023-03-19T17:15:01.643Z,43.49
2023-03-19T17:18:11.599Z,45.02
2023-03-19T17:21:22.574Z,44.91
2023-03-19T17:24:30.901Z,45.72
2023-03-19T17:27:37.339Z,46.25
2023-03-19T17:30:41.666Z,46.65
2023-03-19T17:33:47.846Z,46.52
2023-03-19T17:36:53.432Z,47.50
2023-03-19T17:39:59.299Z,47.26
2023-03-19T17:43:06.943Z,47.08
2023-03-19T17:46:17.569Z,47.24
2023-03-19T17:49:26.234Z,47.33
2023-03-19T17:52:32.013Z,47.56
2023-03-19T17:55:37.839Z,47.94
2023-03-19T17:58:44.004Z,48.50
2023-03-19T18:01:50.068Z,48.79
2023-03-19T18:04:56.337Z,49.15
2023-03-19T18:08:00.448Z,49.62
2023-03-19T18:11:06.781Z,49.79
2023-03-19T18:14:12.785Z,50.67
2023-03-19T18:17:20.364Z,51.00
2023-03-19T18:20:29.815Z,51.42
2023-03-19T18:23:35.580Z,51.65
2023-03-19T18:26:41.725Z,52.02
2023-03-19T18:29:48.003Z,52.19
2023-03-19T18:32:57.146Z,52.69
2023-03-19T18:36:04.402Z,53.16
2023-03-19T18:39:14.342Z,53.37
2023-03-19T18:42:20.360Z,53.47
2023-03-19T18:45:30.607Z,53.92
2023-03-19T18:48:36.661Z,54.23
2023-03-19T18:51:58.791Z,54.51
2023-03-19T18:55:07.974Z,54.75
2023-03-19T18:58:20.533Z,54.77
2023-03-19T19:01:27.885Z,54.99
2023-03-19T19:04:33.836Z,55.26
2023-03-19T19:07:39.758Z,55.37
2023-03-19T19:10:48.537Z,55.64
2023-03-19T19:13:57.223Z,56.06
2023-03-19T19:17:03.201Z,56.50
2023-03-19T19:20:12.018Z,56.64
2023-03-19T19:23:18.585Z,56.51
2023-03-19T19:26:27.027Z,56.47
2023-03-19T19:29:32.938Z,57.09
2023-03-19T19:32:39.504Z,57.49
2023-03-19T19:35:45.942Z,57.83
2023-03-19T19:38:52.257Z,58.08
2023-03-19T19:41:56.995Z,58.14
2023-03-19T19:45:03.868Z,57.76
2023-03-19T19:48:16.810Z,58.37
2023-03-19T19:51:24.921Z,58.73
2023-03-19T19:54:30.857Z,59.26
2023-03-19T19:57:36.924Z,59.61
2023-03-19T20:00:47.748Z,59.84
2023-03-19T20:03:59.629Z,60.40
2023-03-19T20:07:05.548Z,60.41
2023-03-19T20:10:14.433Z,60.80
2023-03-19T20:13:26.195Z,61.04
2023-03-19T20:16:31.995Z,61.23
2023-03-19T20:19:37.884Z,61.64
2023-03-19T20:22:43.945Z,61.67
2023-03-19T20:25:51.070Z,61.61
2023-03-19T20:28:57.091Z,61.76
2023-03-19T20:32:03.152Z,61.92
2023-03-19T20:35:16.072Z,63.05
2023-03-19T20:38:21.826Z,65.55
2023-03-19T20:41:28.605Z,65.13
2023-03-19T20:44:34.672Z,63.90
2023-03-19T20:47:40.859Z,62.64
2023-03-19T20:50:47.935Z,60.58
2023-03-19T20:53:54.102Z,59.72
2023-03-19T20:56:59.989Z,59.91
2023-03-19T21:00:18.499Z,60.35
2023-03-19T21:03:26.397Z,60.71
2023-03-19T21:06:42.720Z,61.11
2023-03-19T21:09:58.124Z,61.38
2023-03-19T21:13:05.491Z,61.72
2023-03-19T21:16:17.543Z,62.05
2023-03-19T21:19:25.940Z,63.89
2023-03-19T21:22:33.143Z,66.00
2023-03-19T21:25:39.327Z,65.65
2023-03-19T21:28:46.637Z,65.18
2023-03-19T21:31:57.945Z,64.51
2023-03-19T21:35:03.776Z,63.31
2023-03-19T21:38:09.634Z,62.05
2023-03-19T21:41:25.115Z,61.22
2023-03-19T21:44:31.487Z,59.37
2023-03-19T21:47:37.228Z,58.49
2023-03-19T21:50:43.541Z,58.98
2023-03-19T21:53:48.056Z,59.68
2023-03-19T21:56:53.849Z,60.03
2023-03-19T21:59:59.745Z,61.27
2023-03-19T22:03:05.809Z,61.85
2023-03-19T22:06:12.754Z,63.29
2023-03-19T22:09:18.645Z,65.20
2023-03-19T22:12:29.109Z,64.59
2023-03-19T22:15:38.020Z,63.63
2023-03-19T22:18:43.926Z,62.37
2023-03-19T22:21:50.731Z,61.56
2023-03-19T22:24:59.369Z,61.26
2023-03-19T22:28:10.524Z,59.36
2023-03-19T22:31:16.617Z,58.87
2023-03-19T22:34:25.267Z,59.66
2023-03-19T22:37:31.991Z,60.74
2023-03-19T22:40:38.721Z,61.17
2023-03-19T22:43:46.269Z,62.00
2023-03-19T22:46:52.166Z,63.72
2023-03-19T22:49:58.471Z,65.52
2023-03-19T22:53:02.768Z,64.97
2023-03-19T22:56:10.893Z,64.58
2023-03-19T22:59:16.734Z,63.37
2023-03-19T23:02:22.613Z,62.57
2023-03-19T23:05:31.815Z,62.07
2023-03-19T23:08:37.650Z,62.23
2023-03-19T23:11:43.854Z,61.88
2023-03-19T23:14:49.922Z,61.96
2023-03-19T23:17:58.269Z,61.59
2023-03-19T23:21:05.087Z,61.97
2023-03-19T23:24:14.746Z,61.83
2023-03-19T23:27:26.100Z,61.45
2023-03-19T23:30:34.176Z,60.74
2023-03-19T23:33:40.200Z,59.07
2023-03-19T23:36:46.381Z,58.77
2023-03-19T23:39:53.764Z,59.55
2023-03-19T23:43:02.274Z,60.64
2023-03-19T23:46:11.637Z,61.46
2023-03-19T23:49:19.429Z,64.14
2023-03-19T23:52:25.275Z,65.94
2023-03-19T23:55:32.410Z,65.41
2023-03-19T23:58:43.240Z,64.08
